Time;durP1;ratioP1;P1;durP2;ratioP2;P2;SDS_P1;SDS_P2;PMS_P1;PMS_P2;Temp;Humidity;BMP_temperature;BMP_pressure;BME280_temperature;BME280_humidity;BME280_pressure;Samples;Min_cycle;Max_cycle;Signal;HPM_P1;HPM_P2
2020/12/18 01:22:54;;;;;;;13.27;6.68;;;;;;;4.80;79.57;100780.78;3810123;23;20021;-83
2020/12/18 01:57:55;;;;;;;15.43;8.10;;;;;;;4.61;79.80;100775.66;3637477;23;20470;-82
2020/12/18 03:07:21;;;;;;;18.20;7.32;;;;;;;3.72;81.26;100755.03;3759899;23;20541;-82
2020/12/18 03:48:13;;;;;;;33.08;9.68;;;;;;;3.61;82.24;100760.06;3819058;22;20025;-82
2020/12/18 04:33:53;;;;;;;28.83;8.20;;;;;;;3.74;82.08;100769.88;3802592;23;20034;-81
2020/12/18 04:40:42;;;;;;;61.72;9.35;;;;;;;3.69;81.93;100757.84;3828930;22;20083;-82
2020/12/18 04:52:57;;;;;;;23.67;5.90;;;;;;;3.61;82.86;100741.53;3898301;22;20047;-82
2020/12/18 04:57:10;;;;;;;28.40;7.45;;;;;;;3.65;82.75;100741.28;3886361;22;20145;-82
2020/12/18 04:58:51;;;;;;;29.38;6.57;;;;;;;3.68;82.02;100754.34;3901297;22;20016;-82
2020/12/18 05:01:03;;;;;;;23.05;5.30;;;;;;;3.68;82.07;100742.94;3890413;22;20053;-82
2020/12/18 05:16:49;;;;;;;24.25;5.15;;;;;;;3.65;82.33;100753.66;3858514;22;20040;-82
2020/12/18 05:18:22;;;;;;;29.98;7.55;;;;;;;3.64;82.35;100746.66;3836891;22;20461;-81
2020/12/18 05:19:55;;;;;;;13.88;4.53;;;;;;;3.70;82.37;100749.84;3845445;23;20025;-82
2020/12/18 05:21:35;;;;;;;22.08;5.75;;;;;;;3.73;82.18;100749.66;3835089;23;20025;-82
2020/12/18 05:23:09;;;;;;;11.70;4.30;;;;;;;3.83;82.13;100746.50;3842245;23;20039;-82
2020/12/18 05:24:41;;;;;;;26.67;6.75;;;;;;;3.80;82.22;100744.88;3834027;22;20021;-81
2020/12/18 05:26:15;;;;;;;37.83;7.82;;;;;;;3.84;82.04;100753.50;3851049;23;20416;-82
2020/12/18 05:27:49;;;;;;;21.67;5.10;;;;;;;3.74;81.95;100739.94;3838196;22;20028;-82
2020/12/18 05:29:22;;;;;;;11.40;4.88;;;;;;;3.79;82.08;100750.28;3847809;23;20032;-82
2020/12/18 05:33:57;;;;;;;11.30;5.13;;;;;;;3.75;81.91;100739.84;3786016;22;20029;-82
2020/12/18 05:35:45;;;;;;;16.27;4.82;;;;;;;3.79;81.50;100756.41;3837547;23;20021;-82
2020/12/18 05:47:09;;;;;;;14.70;4.20;;;;;;;3.62;82.02;100736.19;3766383;23;20514;-81
2020/12/18 05:49:18;;;;;;;23.33;5.20;;;;;;;3.61;82.27;100738.91;3683361;23;20030;-81
2020/12/18 05:58:31;;;;;;;13.38;5.05;;;;;;;3.54;82.58;100754.25;3866286;22;19908;-81
2020/12/18 06:00:05;;;;;;;30.75;6.45;;;;;;;3.60;82.42;100740.69;3853511;22;20025;-81
2020/12/18 06:01:44;;;;;;;27.23;7.25;;;;;;;3.62;82.44;100741.47;3866289;23;20032;-81
2020/12/18 06:03:36;;;;;;;16.45;5.72;;;;;;;3.67;82.23;100746.50;3854881;22;20024;-82
2020/12/18 06:05:10;;;;;;;30.98;6.70;;;;;;;3.71;82.14;100748.03;3859048;23;20028;-81
2020/12/18 06:06:45;;;;;;;12.20;5.50;;;;;;;3.72;82.21;100749.75;3851147;22;20028;-81
2020/12/18 06:08:18;;;;;;;21.88;7.18;;;;;;;3.74;82.13;100747.88;3858620;23;20020;-81
2020/12/18 06:10:02;;;;;;;18.20;5.85;;;;;;;3.72;81.72;100747.09;3852231;23;20088;-81
2020/12/18 06:11:47;;;;;;;20.15;7.38;;;;;;;3.70;82.24;100749.84;3854336;22;20016;-82
2020/12/18 06:13:31;;;;;;;32.25;9.43;;;;;;;3.66;82.14;100750.09;3859273;23;20063;-82
2020/12/18 06:17:16;;;;;;;36.40;8.77;;;;;;;3.69;81.93;100758.72;3845034;23;20020;-83
2020/12/18 06:21:25;;;;;;;89.60;11.63;;;;;;;3.50;81.88;100753.53;3781311;23;20025;-81
2020/12/18 06:23:33;;;;;;;65.15;9.88;;;;;;;3.39;82.05;100748.00;3838268;23;20028;-81
2020/12/18 06:26:57;;;;;;;32.88;7.00;;;;;;;3.43;82.33;100763.63;3845589;23;20370;-81
2020/12/18 06:28:28;;;;;;;21.92;5.47;;;;;;;3.45;82.22;100763.53;3840831;23;20052;-81
2020/12/18 06:30:09;;;;;;;19.00;6.93;;;;;;;3.43;81.43;100757.44;3823839;23;20024;-80
2020/12/18 06:31:41;;;;;;;13.75;5.80;;;;;;;3.41;82.19;100756.69;3858822;23;20038;-81
2020/12/18 06:33:13;;;;;;;26.85;8.52;;;;;;;3.39;81.84;100758.56;3841558;22;20078;-81
2020/12/18 06:34:44;;;;;;;36.33;7.78;;;;;;;3.28;82.04;100762.63;3859267;23;20507;-81
2020/12/18 06:36:42;;;;;;;34.08;7.47;;;;;;;3.28;82.15;100756.47;3804839;23;20021;-80
2020/12/18 06:38:45;;;;;;;50.05;8.90;;;;;;;3.11;82.15;100760.00;3846525;23;20028;-81
2020/12/18 06:43:05;;;;;;;80.95;11.07;;;;;;;3.15;82.33;100761.53;3829657;23;20036;-80
2020/12/18 06:44:51;;;;;;;22.58;6.00;;;;;;;3.09;82.32;100756.59;3796141;23;20493;-81
2020/12/18 06:46:33;;;;;;;24.10;5.45;;;;;;;3.14;82.29;100751.91;3834356;23;20040;-81
2020/12/18 06:51:34;;;;;;;45.75;6.63;;;;;;;3.22;82.33;100755.00;3843158;23;20025;-81
2020/12/18 06:57:31;;;;;;;15.75;4.38;;;;;;;3.20;82.33;100753.38;3796865;23;20378;-81
2020/12/18 06:59:31;;;;;;;13.77;4.88;;;;;;;3.20;82.19;100759.53;3835973;23;20028;-82
2020/12/18 07:01:34;;;;;;;16.52;5.38;;;;;;;3.24;81.87;100768.16;3751376;23;20022;-80
2020/12/18 07:03:09;;;;;;;11.65;3.80;;;;;;;3.21;82.34;100757.72;3785699;23;20020;-80
2020/12/18 07:04:42;;;;;;;16.42;4.28;;;;;;;3.23;82.20;100764.63;3831378;23;20025;-81
2020/12/18 07:06:21;;;;;;;17.70;5.35;;;;;;;3.25;82.18;100764.59;3855333;23;20035;-80
2020/12/18 07:08:06;;;;;;;16.55;4.80;;;;;;;3.19;81.83;100765.75;3871867;23;20048;-80
2020/12/18 07:12:14;;;;;;;30.98;5.82;;;;;;;3.16;82.16;100767.69;3842690;23;20016;-83
2020/12/18 07:19:06;;;;;;;13.55;4.05;;;;;;;3.01;82.32;100769.34;3847605;23;20055;-81
2020/12/18 07:20:48;;;;;;;58.95;8.75;;;;;;;2.99;82.49;100771.19;3794027;23;20028;-81
2020/12/18 07:22:24;;;;;;;27.33;6.47;;;;;;;3.03;82.77;100762.16;3805532;23;20029;-82
2020/12/18 07:24:12;;;;;;;28.55;5.63;;;;;;;3.06;82.74;100762.91;3834902;23;20072;-82
2020/12/18 07:26:08;;;;;;;38.97;10.43;;;;;;;3.02;83.13;100761.31;3794995;23;20033;-82
2020/12/18 07:27:45;;;;;;;39.92;9.65;;;;;;;2.97;83.46;100755.44;3773864;23;20464;-82
2020/12/18 07:36:59;;;;;;;39.25;11.55;;;;;;;2.77;84.05;100754.66;3850989;23;20035;-85
2020/12/18 07:56:12;;;;;;;64.05;13.88;;;;;;;2.79;84.30;100754.56;3839241;23;20221;-80
2020/12/18 07:57:46;;;;;;;34.97;11.32;;;;;;;2.86;84.06;100760.41;3723188;22;20022;-81
2020/12/18 08:04:00;;;;;;;52.10;12.55;;;;;;;2.63;84.50;100751.84;3837926;23;20020;-81
2020/12/18 08:05:57;;;;;;;60.00;14.82;;;;;;;2.65;84.08;100755.28;3865548;23;20020;-81
2020/12/18 08:08:12;;;;;;;47.80;11.77;;;;;;;2.63;84.30;100759.75;3861017;23;20040;-81
2020/12/18 08:09:58;;;;;;;78.63;13.57;;;;;;;2.62;84.52;100768.63;3829692;23;20031;-80
2020/12/18 08:11:33;;;;;;;68.75;12.38;;;;;;;2.66;84.37;100767.53;3857406;23;20028;-80
2020/12/18 08:13:04;;;;;;;47.88;11.77;;;;;;;2.70;84.32;100760.31;3853274;23;20031;-81
2020/12/18 08:15:27;;;;;;;37.60;9.68;;;;;;;2.80;84.35;100772.13;3827319;23;20020;-81
2020/12/18 08:17:00;;;;;;;32.17;10.10;;;;;;;2.85;84.51;100772.75;3834697;23;20032;-81
2020/12/18 08:18:32;;;;;;;25.80;10.63;;;;;;;2.98;84.27;100775.63;3751354;23;20048;-80
2020/12/18 08:20:08;;;;;;;28.95;10.85;;;;;;;3.06;83.86;100780.50;3855252;23;20168;-80
2020/12/18 08:21:41;;;;;;;23.70;10.23;;;;;;;3.12;83.97;100777.53;3853993;22;20469;-80
2020/12/18 08:35:36;;;;;;;18.65;7.00;;;;;;;3.11;83.05;100770.59;3863277;22;20079;-81
2020/12/18 08:37:11;;;;;;;54.75;9.68;;;;;;;3.02;83.19;100766.63;3852350;23;20036;-81
2020/12/18 08:39:13;;;;;;;75.18;9.60;;;;;;;2.97;83.04;100780.06;3845806;23;20024;-80
2020/12/18 08:40:45;;;;;;;21.88;6.57;;;;;;;2.96;83.56;100762.50;3858706;23;20019;-81
2020/12/18 08:42:24;;;;;;;30.05;7.57;;;;;;;3.03;83.32;100773.59;3849891;22;20378;-80
2020/12/18 08:44:09;;;;;;;49.00;10.80;;;;;;;3.05;83.14;100773.53;3859918;23;20027;-81
2020/12/18 08:45:45;;;;;;;32.42;9.75;;;;;;;3.10;83.19;100785.56;3853706;23;20020;-81
2020/12/18 08:47:24;;;;;;;43.78;11.50;;;;;;;3.10;82.94;100774.16;3858621;23;20028;-81
2020/12/18 08:48:55;;;;;;;25.60;9.20;;;;;;;3.01;83.10;100770.19;3833311;22;20492;-82
2020/12/18 08:50:28;;;;;;;36.45;9.35;;;;;;;2.92;83.34;100768.88;3841424;23;20108;-80
2020/12/18 08:52:03;;;;;;;19.80;8.07;;;;;;;2.99;83.22;100771.19;3850826;23;20163;-81
2020/12/18 08:53:36;;;;;;;33.70;9.45;;;;;;;3.03;83.20;100780.66;3851962;22;20099;-81
2020/12/18 08:55:08;;;;;;;14.10;6.18;;;;;;;3.06;83.17;100777.88;3859345;23;20040;-81
2020/12/18 08:56:39;;;;;;;15.50;6.18;;;;;;;3.09;83.02;100777.72;3853598;23;20021;-81
2020/12/18 08:58:12;;;;;;;19.08;6.97;;;;;;;3.11;83.09;100771.41;3858492;23;20108;-81
2020/12/18 09:00:04;;;;;;;42.80;12.45;;;;;;;2.94;82.87;100777.56;3853317;22;20465;-80
2020/12/18 09:01:36;;;;;;;31.52;9.85;;;;;;;2.93;83.29;100781.13;3839380;23;20036;-81
2020/12/18 09:03:20;;;;;;;35.80;10.18;;;;;;;2.85;83.00;100769.25;3841091;23;20357;-81
2020/12/18 09:05:18;;;;;;;41.55;9.20;;;;;;;2.85;83.25;100771.91;3859293;23;20021;-82
2020/12/18 09:06:57;;;;;;;47.05;11.02;;;;;;;2.88;83.41;100769.97;3851694;23;20023;-81
2020/12/18 09:08:28;;;;;;;54.92;10.60;;;;;;;2.88;83.54;100775.25;3859948;23;20029;-81
2020/12/18 09:10:03;;;;;;;54.63;10.63;;;;;;;2.93;83.34;100767.09;3852306;22;20048;-81
2020/12/18 09:11:35;;;;;;;74.32;11.50;;;;;;;2.92;83.55;100757.44;3851968;23;20117;-81
2020/12/18 09:13:19;;;;;;;29.15;8.00;;;;;;;2.90;83.17;100760.19;3867066;23;20508;-81
2020/12/18 09:15:22;;;;;;;32.03;8.25;;;;;;;2.83;83.36;100757.91;3815936;22;20064;-81
2020/12/18 09:16:57;;;;;;;63.40;10.73;;;;;;;2.92;83.41;100770.66;3771257;23;20108;-82
2020/12/18 09:18:30;;;;;;;41.47;7.25;;;;;;;2.93;83.53;100756.53;3790457;23;20022;-81
2020/12/18 09:22:15;;;;;;;40.47;7.50;;;;;;;3.02;83.40;100768.41;3788414;23;20453;-81
2020/12/18 09:23:49;;;;;;;32.13;5.97;;;;;;;3.16;83.32;100783.56;3834660;23;20049;-81
2020/12/18 09:25:21;;;;;;;33.85;7.85;;;;;;;3.11;83.37;100782.00;3864517;23;20034;-81
2020/12/18 09:27:07;;;;;;;38.97;7.55;;;;;;;3.10;83.17;100771.50;3854227;22;20797;-80
2020/12/18 09:28:41;;;;;;;19.58;5.93;;;;;;;3.20;83.34;100774.53;3857987;23;20021;-80
2020/12/18 09:30:12;;;;;;;16.15;5.90;;;;;;;3.34;83.35;100779.09;3856410;23;20024;-80
2020/12/18 09:31:44;;;;;;;28.88;7.90;;;;;;;3.33;83.22;100780.03;3862176;23;20039;-80
2020/12/18 09:33:25;;;;;;;36.15;6.85;;;;;;;3.39;83.20;100772.63;3852338;22;20036;-80
2020/12/18 09:34:58;;;;;;;18.63;5.05;;;;;;;3.45;83.29;100781.19;3859618;23;20028;-80
2020/12/18 09:36:31;;;;;;;10.48;5.65;;;;;;;3.49;83.09;100773.00;3853202;23;20079;-80
2020/12/18 09:38:09;;;;;;;19.90;5.75;;;;;;;3.54;82.90;100773.59;3858411;23;20476;-80
2020/12/18 09:39:40;;;;;;;21.40;6.65;;;;;;;3.60;82.78;100775.06;3851327;22;20017;-80
2020/12/18 09:41:14;;;;;;;12.73;4.45;;;;;;;3.59;82.64;100760.97;3856116;23;20259;-79
2020/12/18 09:42:46;;;;;;;10.73;4.15;;;;;;;3.66;82.56;100772.09;3853838;23;20461;-79
2020/12/18 09:44:17;;;;;;;24.80;7.28;;;;;;;3.65;82.79;100774.81;3856404;23;20043;-80
2020/12/18 09:45:49;;;;;;;10.77;5.78;;;;;;;3.72;82.95;100765.63;3854557;22;20032;-80
2020/12/18 09:47:22;;;;;;;24.45;7.95;;;;;;;3.83;82.71;100767.66;3855139;23;20028;-79
2020/12/18 09:48:53;;;;;;;13.25;5.18;;;;;;;3.89;82.47;100768.19;3854075;23;20035;-80
2020/12/18 09:50:25;;;;;;;18.38;6.70;;;;;;;3.95;82.27;100766.16;3855821;23;20024;-80
2020/12/18 09:51:56;;;;;;;14.00;5.22;;;;;;;3.97;82.32;100761.66;3853449;22;20693;-80
2020/12/18 09:53:29;;;;;;;18.80;5.28;;;;;;;3.94;81.98;100761.81;3856355;23;20013;-80
2020/12/18 09:55:00;;;;;;;13.43;5.95;;;;;;;3.96;82.17;100755.50;3855297;23;20078;-81
2020/12/18 09:56:34;;;;;;;26.08;6.30;;;;;;;3.92;81.89;100761.03;3853711;22;20020;-80
2020/12/18 09:58:06;;;;;;;10.98;4.93;;;;;;;3.97;81.93;100759.00;3853450;23;20095;-80
2020/12/18 09:59:37;;;;;;;12.68;5.25;;;;;;;3.98;81.74;100760.69;3854212;23;20335;-81
2020/12/18 10:01:09;;;;;;;15.27;6.53;;;;;;;3.90;81.93;100748.75;3854450;23;20029;-80
2020/12/18 10:02:40;;;;;;;18.95;6.50;;;;;;;3.93;81.97;100749.53;3851765;23;20047;-80
2020/12/18 10:04:11;;;;;;;21.83;5.45;;;;;;;3.86;81.96;100755.16;3857659;23;20044;-81
2020/12/18 10:05:45;;;;;;;11.23;4.97;;;;;;;3.95;81.70;100750.28;3853346;23;20052;-81
2020/12/18 10:07:16;;;;;;;19.42;5.55;;;;;;;3.92;81.50;100747.81;3863713;23;20031;-83
2020/12/18 10:08:49;;;;;;;41.75;7.78;;;;;;;3.85;81.36;100745.50;3853358;22;20124;-82
2020/12/18 10:10:27;;;;;;;10.88;5.25;;;;;;;3.88;81.05;100747.97;3857757;23;20112;-81
2020/12/18 10:12:00;;;;;;;45.80;11.50;;;;;;;3.85;81.39;100750.81;3850418;23;20012;-82
2020/12/18 10:13:32;;;;;;;15.05;7.30;;;;;;;3.81;81.54;100748.41;3857914;23;20088;-82
2020/12/18 10:15:03;;;;;;;25.70;10.35;;;;;;;3.74;81.81;100754.00;3850680;22;20047;-81
2020/12/18 10:16:35;;;;;;;27.55;9.73;;;;;;;3.66;82.09;100745.66;3856663;23;20028;-81
2020/12/18 10:18:06;;;;;;;35.08;11.52;;;;;;;3.66;82.07;100750.09;3854151;23;20024;-81
2020/12/18 10:19:37;;;;;;;38.33;11.18;;;;;;;3.65;82.28;100745.75;3857607;23;20075;-81
2020/12/18 10:21:09;;;;;;;65.18;14.98;;;;;;;3.52;82.56;100737.63;3847305;22;20017;-81
2020/12/18 10:22:41;;;;;;;90.28;17.38;;;;;;;3.46;82.79;100740.56;3855396;23;20024;-81
2020/12/18 10:24:14;;;;;;;22.88;7.13;;;;;;;3.57;82.55;100732.91;3853884;23;20062;-81
2020/12/18 10:25:45;;;;;;;44.97;11.60;;;;;;;3.65;82.54;100728.06;3854782;23;20043;-80
2020/12/18 10:27:19;;;;;;;22.95;10.13;;;;;;;3.77;82.18;100726.56;3853034;23;20016;-81
2020/12/18 10:28:50;;;;;;;15.05;7.75;;;;;;;3.86;82.26;100723.41;3856873;23;20021;-81
2020/12/18 10:32:02;;;;;;;24.83;9.27;;;;;;;3.98;81.90;100721.88;3849759;22;20016;-81
2020/12/18 10:33:33;;;;;;;19.88;8.35;;;;;;;4.00;81.94;100716.47;3848193;22;20016;-79
2020/12/18 10:35:07;;;;;;;26.30;9.13;;;;;;;4.01;81.78;100719.06;3858414;23;20024;-81
2020/12/18 10:36:57;;;;;;;28.17;11.48;;;;;;;4.00;81.49;100725.28;3848343;23;20021;-81
2020/12/18 10:38:29;;;;;;;28.95;14.55;;;;;;;4.00;81.76;100714.72;3859417;23;20051;-81
2020/12/18 10:40:05;;;;;;;19.45;10.25;;;;;;;4.03;81.66;100718.97;3850549;22;20461;-81
2020/12/18 10:41:39;;;;;;;29.45;12.50;;;;;;;4.02;81.80;100725.19;3854613;23;20100;-81
2020/12/18 10:43:12;;;;;;;20.30;9.25;;;;;;;4.09;81.76;100710.66;3860379;23;20036;-80
2020/12/18 10:46:24;;;;;;;13.95;6.97;;;;;;;4.13;81.51;100706.06;3858811;22;20016;-81
2020/12/18 10:47:55;;;;;;;15.88;7.35;;;;;;;4.18;81.41;100704.84;3847820;22;20028;-81
2020/12/18 10:49:33;;;;;;;22.10;10.18;;;;;;;4.16;81.45;100709.38;3840371;23;20021;-81
2020/12/18 10:51:04;;;;;;;13.80;8.05;;;;;;;4.16;81.94;100701.44;3838615;22;20026;-81
2020/12/18 10:52:37;;;;;;;19.17;9.40;;;;;;;4.24;81.52;100698.34;3859827;23;20027;-81
2020/12/18 10:54:30;;;;;;;13.82;7.78;;;;;;;4.34;81.14;100704.84;3856016;22;20485;-81
2020/12/18 10:56:02;;;;;;;21.70;9.07;;;;;;;4.32;81.41;100690.81;3854153;23;20005;-81
2020/12/18 10:57:34;;;;;;;14.30;7.85;;;;;;;4.45;81.67;100700.72;3850486;23;20025;-81
2020/12/18 11:01:38;;;;;;;17.10;8.32;;;;;;;4.61;80.94;100692.72;3747643;23;20002;-82
2020/12/18 11:04:04;;;;;;;15.02;5.28;;;;;;;4.64;80.43;100696.06;3816684;23;20009;-81
2020/12/18 11:06:27;;;;;;;16.42;7.28;;;;;;;4.59;79.90;100686.66;3800205;23;20036;-83
2020/12/18 11:09:21;;;;;;;19.92;8.43;;;;;;;4.39;80.42;100687.84;3838466;23;20021;-83
2020/12/18 11:13:11;;;;;;;14.68;7.05;;;;;;;4.70;nan;100684.25;3769709;23;20104;-81
2020/12/18 11:15:28;;;;;;;12.77;6.00;;;;;;;4.77;80.31;100682.91;3744234;23;20037;-81
2020/12/18 11:17:04;;;;;;;20.25;10.00;;;;;;;4.74;80.38;100680.44;3825406;23;20028;-81
2020/12/18 11:18:39;;;;;;;12.23;5.80;;;;;;;4.66;80.45;100675.63;3731157;23;20053;-81
2020/12/18 11:20:16;;;;;;;10.02;5.57;;;;;;;4.78;80.58;100681.97;3797251;23;20032;-81
2020/12/18 11:24:31;;;;;;;11.18;5.75;;;;;;;4.88;80.35;100665.53;3741824;22;20022;-82
2020/12/18 11:26:14;;;;;;;11.27;4.47;;;;;;;4.94;79.87;100659.84;3837748;23;20033;-81
2020/12/18 11:27:58;;;;;;;12.00;5.93;;;;;;;5.05;79.77;100661.88;3823664;23;20043;-82
2020/12/18 11:29:55;;;;;;;8.63;4.20;;;;;;;5.05;79.64;100656.56;3842813;22;20100;-80
2020/12/18 11:31:39;;;;;;;14.77;6.32;;;;;;;5.08;79.62;100656.34;3850009;23;20017;-81
2020/12/18 11:33:24;;;;;;;11.68;6.05;;;;;;;5.04;79.60;100650.38;3834477;23;20044;-80
2020/12/18 11:40:45;;;;;;;18.60;8.60;;;;;;;5.07;80.28;100652.88;3669282;23;20023;-81
2020/12/18 11:45:05;;;;;;;13.05;6.22;;;;;;;5.20;79.53;100642.34;3727317;23;20471;-80
2020/12/18 11:48:31;;;;;;;22.48;10.93;;;;;;;5.29;79.87;100643.59;3832264;23;19948;-81
2020/12/18 11:50:05;;;;;;;14.98;8.52;;;;;;;5.31;79.89;100636.38;3832490;23;20036;-81
2020/12/18 11:54:15;;;;;;;21.13;10.32;;;;;;;5.31;79.49;100633.72;3841730;23;20021;-82
2020/12/18 11:58:56;;;;;;;13.85;6.85;;;;;;;5.40;78.97;100622.53;3744424;23;20022;-82
2020/12/18 12:00:35;;;;;;;14.70;7.50;;;;;;;5.54;79.37;100619.00;3794969;22;20025;-82
2020/12/18 12:02:35;;;;;;;17.73;9.55;;;;;;;5.62;78.69;100616.69;3828168;23;20048;-82
2020/12/18 12:04:09;;;;;;;17.52;9.52;;;;;;;5.66;78.55;100621.81;3711460;23;20505;-81
2020/12/18 12:05:48;;;;;;;16.00;8.38;;;;;;;5.71;78.12;100628.53;3786274;23;20048;-82
2020/12/18 12:07:37;;;;;;;13.98;6.72;;;;;;;5.72;78.55;100613.44;3851351;23;20101;-82
2020/12/18 13:13:40;;;;;;;10.05;6.03;;;;;;;6.75;76.30;100520.72;3852961;22;20016;-83
2020/12/18 18:12:28;;;;;;;16.05;11.13;;;;;;;4.74;79.90;100455.28;3833454;22;20065;-81
2020/12/18 18:13:59;;;;;;;17.20;12.00;;;;;;;4.77;79.95;100451.63;3854216;23;20096;-82
2020/12/18 18:15:31;;;;;;;23.08;13.13;;;;;;;4.79;79.93;100453.22;3850641;22;20028;-81
2020/12/18 18:17:31;;;;;;;23.80;14.20;;;;;;;4.75;79.50;100457.00;3861381;23;20076;-82
2020/12/18 18:19:03;;;;;;;20.35;13.75;;;;;;;4.68;80.04;100453.03;3862135;22;20051;-82
2020/12/18 18:20:35;;;;;;;18.85;12.82;;;;;;;4.72;80.03;100454.56;3837356;23;20035;-81
2020/12/18 18:22:16;;;;;;;18.23;12.65;;;;;;;4.64;79.77;100441.78;3838768;23;20013;-81
2020/12/18 18:23:48;;;;;;;17.27;11.77;;;;;;;4.77;79.90;100459.56;3854425;22;20175;-80
2020/12/18 18:25:19;;;;;;;22.15;13.05;;;;;;;4.76;79.87;100464.00;3858070;23;20344;-80
2020/12/18 18:26:57;;;;;;;22.38;13.45;;;;;;;4.66;79.60;100455.78;3856306;23;20497;-81
2020/12/18 18:31:11;;;;;;;19.17;12.80;;;;;;;4.55;79.65;100457.41;3859344;22;20016;-82
2020/12/18 18:55:35;;;;;;;19.25;12.93;;;;;;;4.27;80.02;100451.16;3854240;23;20023;-83
2020/12/18 19:02:42;;;;;;;22.73;13.63;;;;;;;4.27;79.81;100454.69;3801453;23;20010;-82
2020/12/18 20:09:06;;;;;;;24.25;12.25;;;;;;;4.71;77.92;100394.59;3735771;23;20024;-82
